sensor_id;sensor_type;location;lat;lon;timestamp;temperature;humidity
44851;DHT22;30583;48.714;9.386;2023-05-17T00:01:50;10.70;64.60
44851;DHT22;30583;48.714;9.386;2023-05-17T00:04:16;10.70;64.50
44851;DHT22;30583;48.714;9.386;2023-05-17T00:06:42;10.70;65.00
44851;DHT22;30583;48.714;9.386;2023-05-17T00:09:07;10.80;65.00
44851;DHT22;30583;48.714;9.386;2023-05-17T00:11:33;10.70;64.90
44851;DHT22;30583;48.714;9.386;2023-05-17T00:13:59;10.50;65.50
44851;DHT22;30583;48.714;9.386;2023-05-17T00:16:25;10.60;66.10
44851;DHT22;30583;48.714;9.386;2023-05-17T00:18:51;10.80;65.60
44851;DHT22;30583;48.714;9.386;2023-05-17T00:21:16;10.70;65.80
44851;DHT22;30583;48.714;9.386;2023-05-17T00:23:42;10.70;65.90
44851;DHT22;30583;48.714;9.386;2023-05-17T00:26:07;10.60;66.00
44851;DHT22;30583;48.714;9.386;2023-05-17T00:28:33;10.70;66.10
44851;DHT22;30583;48.714;9.386;2023-05-17T00:30:58;10.40;66.30
44851;DHT22;30583;48.714;9.386;2023-05-17T00:33:24;10.60;66.30
44851;DHT22;30583;48.714;9.386;2023-05-17T00:35:49;10.70;66.10
44851;DHT22;30583;48.714;9.386;2023-05-17T00:38:15;10.90;65.60
44851;DHT22;30583;48.714;9.386;2023-05-17T00:40:41;10.70;65.60
44851;DHT22;30583;48.714;9.386;2023-05-17T00:43:06;10.50;66.50
44851;DHT22;30583;48.714;9.386;2023-05-17T00:45:32;10.40;67.00
44851;DHT22;30583;48.714;9.386;2023-05-17T00:47:57;10.50;66.90
44851;DHT22;30583;48.714;9.386;2023-05-17T00:50:23;10.20;66.60
44851;DHT22;30583;48.714;9.386;2023-05-17T00:52:48;10.00;67.30
44851;DHT22;30583;48.714;9.386;2023-05-17T00:55:14;10.20;67.20
44851;DHT22;30583;48.714;9.386;2023-05-17T00:57:40;10.30;66.20
44851;DHT22;30583;48.714;9.386;2023-05-17T01:00:06;10.40;65.80
44851;DHT22;30583;48.714;9.386;2023-05-17T01:02:32;10.60;65.20
44851;DHT22;30583;48.714;9.386;2023-05-17T01:04:58;10.00;64.60
44851;DHT22;30583;48.714;9.386;2023-05-17T01:07:24;9.90;65.20
44851;DHT22;30583;48.714;9.386;2023-05-17T01:09:50;10.30;64.90
44851;DHT22;30583;48.714;9.386;2023-05-17T01:20:36;10.70;63.70
44851;DHT22;30583;48.714;9.386;2023-05-17T01:28:28;10.20;65.30
44851;DHT22;30583;48.714;9.386;2023-05-17T01:30:56;10.50;65.40
44851;DHT22;30583;48.714;9.386;2023-05-17T01:33:23;10.70;64.30
44851;DHT22;30583;48.714;9.386;2023-05-17T01:35:49;10.50;64.20
44851;DHT22;30583;48.714;9.386;2023-05-17T01:38:14;10.60;64.20
44851;DHT22;30583;48.714;9.386;2023-05-17T01:40:47;10.30;64.90
44851;DHT22;30583;48.714;9.386;2023-05-17T01:43:21;10.20;64.20
44851;DHT22;30583;48.714;9.386;2023-05-17T01:48:51;10.20;65.00
44851;DHT22;30583;48.714;9.386;2023-05-17T01:51:20;9.90;66.30
44851;DHT22;30583;48.714;9.386;2023-05-17T01:54:01;9.80;66.30
44851;DHT22;30583;48.714;9.386;2023-05-17T01:56:32;10.10;65.30
44851;DHT22;30583;48.714;9.386;2023-05-17T01:58:59;10.10;65.20
44851;DHT22;30583;48.714;9.386;2023-05-17T02:01:27;10.10;64.90
44851;DHT22;30583;48.714;9.386;2023-05-17T02:03:53;10.10;65.50
44851;DHT22;30583;48.714;9.386;2023-05-17T02:06:18;10.00;65.80
44851;DHT22;30583;48.714;9.386;2023-05-17T02:08:44;10.00;66.00
44851;DHT22;30583;48.714;9.386;2023-05-17T02:11:09;9.90;66.50
44851;DHT22;30583;48.714;9.386;2023-05-17T02:13:35;9.90;66.50
44851;DHT22;30583;48.714;9.386;2023-05-17T02:16:02;9.90;65.70
44851;DHT22;30583;48.714;9.386;2023-05-17T02:18:28;9.70;67.20
44851;DHT22;30583;48.714;9.386;2023-05-17T02:20:54;9.70;67.00
44851;DHT22;30583;48.714;9.386;2023-05-17T02:23:20;9.80;67.10
44851;DHT22;30583;48.714;9.386;2023-05-17T02:25:46;9.90;67.00
44851;DHT22;30583;48.714;9.386;2023-05-17T02:28:11;10.00;66.50
44851;DHT22;30583;48.714;9.386;2023-05-17T02:30:37;9.80;67.40
44851;DHT22;30583;48.714;9.386;2023-05-17T02:33:06;9.80;67.40
44851;DHT22;30583;48.714;9.386;2023-05-17T02:35:32;9.70;67.30
44851;DHT22;30583;48.714;9.386;2023-05-17T02:37:58;9.50;67.10
44851;DHT22;30583;48.714;9.386;2023-05-17T02:40:23;9.20;68.50
44851;DHT22;30583;48.714;9.386;2023-05-17T02:42:49;9.20;67.90
44851;DHT22;30583;48.714;9.386;2023-05-17T02:45:15;9.60;66.60
44851;DHT22;30583;48.714;9.386;2023-05-17T02:47:40;9.30;67.50
44851;DHT22;30583;48.714;9.386;2023-05-17T02:50:07;9.50;67.00
44851;DHT22;30583;48.714;9.386;2023-05-17T02:52:33;9.90;66.30
44851;DHT22;30583;48.714;9.386;2023-05-17T02:54:58;9.70;66.20
44851;DHT22;30583;48.714;9.386;2023-05-17T02:57:24;9.90;66.00
44851;DHT22;30583;48.714;9.386;2023-05-17T02:59:50;9.70;66.20
44851;DHT22;30583;48.714;9.386;2023-05-17T03:02:15;9.70;66.00
44851;DHT22;30583;48.714;9.386;2023-05-17T03:04:41;9.40;66.90
44851;DHT22;30583;48.714;9.386;2023-05-17T03:07:07;9.40;67.50
44851;DHT22;30583;48.714;9.386;2023-05-17T03:09:33;9.50;67.10
44851;DHT22;30583;48.714;9.386;2023-05-17T03:11:58;9.60;66.80
44851;DHT22;30583;48.714;9.386;2023-05-17T03:14:24;9.70;66.40
44851;DHT22;30583;48.714;9.386;2023-05-17T03:16:49;9.40;67.10
44851;DHT22;30583;48.714;9.386;2023-05-17T03:19:15;9.60;67.10
44851;DHT22;30583;48.714;9.386;2023-05-17T03:21:40;9.50;66.90
44851;DHT22;30583;48.714;9.386;2023-05-17T03:24:06;9.50;67.30
44851;DHT22;30583;48.714;9.386;2023-05-17T03:26:32;9.10;67.80
44851;DHT22;30583;48.714;9.386;2023-05-17T03:28:58;9.20;67.80
44851;DHT22;30583;48.714;9.386;2023-05-17T03:31:24;9.20;68.10
44851;DHT22;30583;48.714;9.386;2023-05-17T03:33:50;9.30;67.40
44851;DHT22;30583;48.714;9.386;2023-05-17T03:36:15;9.20;67.30
44851;DHT22;30583;48.714;9.386;2023-05-17T03:38:41;9.20;67.10
44851;DHT22;30583;48.714;9.386;2023-05-17T03:41:07;9.20;67.60
44851;DHT22;30583;48.714;9.386;2023-05-17T03:43:32;8.70;68.30
44851;DHT22;30583;48.714;9.386;2023-05-17T03:45:58;9.20;68.10
44851;DHT22;30583;48.714;9.386;2023-05-17T03:48:24;8.60;68.70
44851;DHT22;30583;48.714;9.386;2023-05-17T03:50:49;9.00;68.50
44851;DHT22;30583;48.714;9.386;2023-05-17T03:53:15;9.00;67.90
44851;DHT22;30583;48.714;9.386;2023-05-17T03:55:41;8.80;68.10
44851;DHT22;30583;48.714;9.386;2023-05-17T03:58:06;8.40;70.30
44851;DHT22;30583;48.714;9.386;2023-05-17T04:00:32;8.70;69.20
44851;DHT22;30583;48.714;9.386;2023-05-17T04:02:58;9.10;68.00
44851;DHT22;30583;48.714;9.386;2023-05-17T04:05:23;8.80;68.50
44851;DHT22;30583;48.714;9.386;2023-05-17T04:07:49;9.20;67.80
44851;DHT22;30583;48.714;9.386;2023-05-17T04:10:15;9.30;67.30
44851;DHT22;30583;48.714;9.386;2023-05-17T04:12:40;9.20;68.00
44851;DHT22;30583;48.714;9.386;2023-05-17T04:15:06;9.00;67.40
44851;DHT22;30583;48.714;9.386;2023-05-17T04:17:32;9.20;68.10
44851;DHT22;30583;48.714;9.386;2023-05-17T04:19:57;8.50;69.40
44851;DHT22;30583;48.714;9.386;2023-05-17T04:22:23;9.10;68.50
44851;DHT22;30583;48.714;9.386;2023-05-17T04:24:49;9.10;67.50
44851;DHT22;30583;48.714;9.386;2023-05-17T04:27:15;9.20;67.80
44851;DHT22;30583;48.714;9.386;2023-05-17T04:29:40;8.80;69.00
44851;DHT22;30583;48.714;9.386;2023-05-17T04:32:07;9.00;68.20
44851;DHT22;30583;48.714;9.386;2023-05-17T04:34:32;8.70;69.40
44851;DHT22;30583;48.714;9.386;2023-05-17T04:36:58;8.70;69.80
44851;DHT22;30583;48.714;9.386;2023-05-17T04:39:24;8.80;69.10
44851;DHT22;30583;48.714;9.386;2023-05-17T04:41:49;9.10;68.80
44851;DHT22;30583;48.714;9.386;2023-05-17T04:44:16;9.20;68.70
44851;DHT22;30583;48.714;9.386;2023-05-17T04:46:42;9.40;68.30
44851;DHT22;30583;48.714;9.386;2023-05-17T04:49:08;9.30;68.50
44851;DHT22;30583;48.714;9.386;2023-05-17T04:51:34;9.10;69.00
44851;DHT22;30583;48.714;9.386;2023-05-17T04:54:00;9.30;69.40
44851;DHT22;30583;48.714;9.386;2023-05-17T04:56:27;9.50;68.40
44851;DHT22;30583;48.714;9.386;2023-05-17T04:58:52;9.60;68.40
44851;DHT22;30583;48.714;9.386;2023-05-17T05:01:18;9.20;69.10
44851;DHT22;30583;48.714;9.386;2023-05-17T05:03:44;9.10;69.60
44851;DHT22;30583;48.714;9.386;2023-05-17T05:06:09;9.20;69.50
44851;DHT22;30583;48.714;9.386;2023-05-17T05:08:36;9.40;69.30
44851;DHT22;30583;48.714;9.386;2023-05-17T05:11:02;9.40;69.30
44851;DHT22;30583;48.714;9.386;2023-05-17T05:13:28;9.20;68.80
44851;DHT22;30583;48.714;9.386;2023-05-17T05:15:54;14.70;79.20
44851;DHT22;30583;48.714;9.386;2023-05-17T05:18:20;16.70;62.50
44851;DHT22;30583;48.714;9.386;2023-05-17T05:20:47;14.70;63.20
44851;DHT22;30583;48.714;9.386;2023-05-17T05:23:13;13.30;65.40
44851;DHT22;30583;48.714;9.386;2023-05-17T05:25:38;13.40;67.80
44851;DHT22;30583;48.714;9.386;2023-05-17T05:28:04;13.70;64.70
44851;DHT22;30583;48.714;9.386;2023-05-17T05:30:31;13.20;64.70
44851;DHT22;30583;48.714;9.386;2023-05-17T05:32:57;11.50;62.40
44851;DHT22;30583;48.714;9.386;2023-05-17T05:35:22;10.90;64.80
44851;DHT22;30583;48.714;9.386;2023-05-17T05:37:53;10.20;65.90
44851;DHT22;30583;48.714;9.386;2023-05-17T05:40:19;9.80;67.80
44851;DHT22;30583;48.714;9.386;2023-05-17T05:42:44;9.80;67.50
44851;DHT22;30583;48.714;9.386;2023-05-17T05:45:10;9.90;67.80
44851;DHT22;30583;48.714;9.386;2023-05-17T05:47:36;9.90;67.80
44851;DHT22;30583;48.714;9.386;2023-05-17T05:50:02;9.60;68.80
44851;DHT22;30583;48.714;9.386;2023-05-17T05:52:28;9.80;68.10
44851;DHT22;30583;48.714;9.386;2023-05-17T05:54:53;9.80;68.30
44851;DHT22;30583;48.714;9.386;2023-05-17T05:57:19;9.90;68.70
44851;DHT22;30583;48.714;9.386;2023-05-17T05:59:45;10.00;68.40
44851;DHT22;30583;48.714;9.386;2023-05-17T06:02:10;10.10;68.20
44851;DHT22;30583;48.714;9.386;2023-05-17T06:04:36;10.20;67.60
44851;DHT22;30583;48.714;9.386;2023-05-17T06:07:02;10.40;66.70
44851;DHT22;30583;48.714;9.386;2023-05-17T06:09:28;10.50;66.80
44851;DHT22;30583;48.714;9.386;2023-05-17T06:11:54;10.80;66.60
44851;DHT22;30583;48.714;9.386;2023-05-17T06:14:19;11.10;64.40
44851;DHT22;30583;48.714;9.386;2023-05-17T06:16:45;10.90;63.70
44851;DHT22;30583;48.714;9.386;2023-05-17T06:19:13;11.20;63.20
44851;DHT22;30583;48.714;9.386;2023-05-17T06:21:38;11.20;62.60
44851;DHT22;30583;48.714;9.386;2023-05-17T06:24:04;11.30;62.40
44851;DHT22;30583;48.714;9.386;2023-05-17T06:26:30;11.50;63.40
44851;DHT22;30583;48.714;9.386;2023-05-17T06:28:56;11.70;63.70
44851;DHT22;30583;48.714;9.386;2023-05-17T06:31:21;11.70;63.20
44851;DHT22;30583;48.714;9.386;2023-05-17T06:33:47;11.70;63.80
44851;DHT22;30583;48.714;9.386;2023-05-17T06:36:13;11.80;62.60
44851;DHT22;30583;48.714;9.386;2023-05-17T06:38:38;11.90;63.80
44851;DHT22;30583;48.714;9.386;2023-05-17T06:41:04;11.80;63.10
44851;DHT22;30583;48.714;9.386;2023-05-17T06:43:30;11.70;62.10
44851;DHT22;30583;48.714;9.386;2023-05-17T06:45:56;11.30;62.50
44851;DHT22;30583;48.714;9.386;2023-05-17T06:48:22;11.70;63.10
44851;DHT22;30583;48.714;9.386;2023-05-17T06:50:48;11.80;61.90
44851;DHT22;30583;48.714;9.386;2023-05-17T06:53:14;11.90;62.50
44851;DHT22;30583;48.714;9.386;2023-05-17T06:55:39;11.90;62.90
44851;DHT22;30583;48.714;9.386;2023-05-17T06:58:05;12.00;62.80
44851;DHT22;30583;48.714;9.386;2023-05-17T07:00:31;12.10;62.20
44851;DHT22;30583;48.714;9.386;2023-05-17T07:02:57;12.20;62.30
44851;DHT22;30583;48.714;9.386;2023-05-17T07:05:22;12.10;61.10
44851;DHT22;30583;48.714;9.386;2023-05-17T07:07:48;12.10;60.40
44851;DHT22;30583;48.714;9.386;2023-05-17T07:10:14;11.90;62.00
44851;DHT22;30583;48.714;9.386;2023-05-17T07:12:40;12.10;61.90
44851;DHT22;30583;48.714;9.386;2023-05-17T07:15:06;12.20;61.90
44851;DHT22;30583;48.714;9.386;2023-05-17T07:17:32;11.90;61.30
44851;DHT22;30583;48.714;9.386;2023-05-17T07:19:57;12.10;62.60
44851;DHT22;30583;48.714;9.386;2023-05-17T07:22:23;12.50;60.70
44851;DHT22;30583;48.714;9.386;2023-05-17T07:24:49;12.50;60.30
44851;DHT22;30583;48.714;9.386;2023-05-17T07:27:15;12.40;59.70
44851;DHT22;30583;48.714;9.386;2023-05-17T07:29:41;12.70;60.70
44851;DHT22;30583;48.714;9.386;2023-05-17T07:32:07;12.90;60.60
44851;DHT22;30583;48.714;9.386;2023-05-17T07:34:34;12.90;60.60
44851;DHT22;30583;48.714;9.386;2023-05-17T07:37:00;12.70;60.40
44851;DHT22;30583;48.714;9.386;2023-05-17T07:39:25;12.50;61.20
44851;DHT22;30583;48.714;9.386;2023-05-17T07:41:51;12.60;60.40
44851;DHT22;30583;48.714;9.386;2023-05-17T07:44:16;12.60;60.50
44851;DHT22;30583;48.714;9.386;2023-05-17T07:46:42;12.60;60.50
44851;DHT22;30583;48.714;9.386;2023-05-17T07:49:07;12.80;59.30
44851;DHT22;30583;48.714;9.386;2023-05-17T07:51:33;13.00;59.80
44851;DHT22;30583;48.714;9.386;2023-05-17T07:54:00;12.90;61.00
44851;DHT22;30583;48.714;9.386;2023-05-17T07:56:27;13.70;59.90
44851;DHT22;30583;48.714;9.386;2023-05-17T07:58:54;13.50;61.30
44851;DHT22;30583;48.714;9.386;2023-05-17T08:01:19;13.30;58.90
44851;DHT22;30583;48.714;9.386;2023-05-17T08:03:45;13.40;62.70
44851;DHT22;30583;48.714;9.386;2023-05-17T08:06:13;13.70;59.30
44851;DHT22;30583;48.714;9.386;2023-05-17T08:08:40;13.80;59.50
44851;DHT22;30583;48.714;9.386;2023-05-17T08:11:06;13.50;58.80
44851;DHT22;30583;48.714;9.386;2023-05-17T08:13:31;13.50;61.90
44851;DHT22;30583;48.714;9.386;2023-05-17T08:15:57;13.70;59.00
44851;DHT22;30583;48.714;9.386;2023-05-17T08:18:30;13.60;61.30
44851;DHT22;30583;48.714;9.386;2023-05-17T08:20:56;13.10;59.70
44851;DHT22;30583;48.714;9.386;2023-05-17T08:23:21;13.10;60.40
44851;DHT22;30583;48.714;9.386;2023-05-17T08:25:47;13.40;59.30
44851;DHT22;30583;48.714;9.386;2023-05-17T08:28:13;14.00;61.10
44851;DHT22;30583;48.714;9.386;2023-05-17T08:30:38;14.10;59.40
44851;DHT22;30583;48.714;9.386;2023-05-17T08:33:04;14.20;59.80
44851;DHT22;30583;48.714;9.386;2023-05-17T08:35:29;14.00;60.40
44851;DHT22;30583;48.714;9.386;2023-05-17T08:37:56;13.80;59.60
44851;DHT22;30583;48.714;9.386;2023-05-17T08:40:21;14.20;61.40
44851;DHT22;30583;48.714;9.386;2023-05-17T08:42:49;14.10;58.60
44851;DHT22;30583;48.714;9.386;2023-05-17T08:45:15;13.80;60.50
44851;DHT22;30583;48.714;9.386;2023-05-17T08:47:42;14.10;59.20
44851;DHT22;30583;48.714;9.386;2023-05-17T08:50:08;13.70;60.30
44851;DHT22;30583;48.714;9.386;2023-05-17T08:52:35;14.00;62.00
44851;DHT22;30583;48.714;9.386;2023-05-17T08:55:01;14.30;61.70
44851;DHT22;30583;48.714;9.386;2023-05-17T08:57:29;14.30;58.20
44851;DHT22;30583;48.714;9.386;2023-05-17T08:59:57;14.20;57.60
44851;DHT22;30583;48.714;9.386;2023-05-17T09:02:25;14.40;58.40
44851;DHT22;30583;48.714;9.386;2023-05-17T09:04:52;14.70;58.30
44851;DHT22;30583;48.714;9.386;2023-05-17T09:07:23;14.70;56.60
44851;DHT22;30583;48.714;9.386;2023-05-17T09:09:52;15.10;58.70
44851;DHT22;30583;48.714;9.386;2023-05-17T09:12:19;14.70;53.50
44851;DHT22;30583;48.714;9.386;2023-05-17T09:14:45;14.80;56.00
44851;DHT22;30583;48.714;9.386;2023-05-17T09:17:18;14.70;57.20
44851;DHT22;30583;48.714;9.386;2023-05-17T09:19:44;14.90;58.70
44851;DHT22;30583;48.714;9.386;2023-05-17T09:22:17;14.70;57.00
44851;DHT22;30583;48.714;9.386;2023-05-17T09:24:43;15.00;57.20
44851;DHT22;30583;48.714;9.386;2023-05-17T09:27:18;15.50;59.10
44851;DHT22;30583;48.714;9.386;2023-05-17T09:29:44;15.70;55.30
44851;DHT22;30583;48.714;9.386;2023-05-17T09:32:17;15.50;55.80
44851;DHT22;30583;48.714;9.386;2023-05-17T09:34:46;14.80;58.00
44851;DHT22;30583;48.714;9.386;2023-05-17T09:37:14;14.70;56.40
44851;DHT22;30583;48.714;9.386;2023-05-17T09:39:41;14.70;56.90
44851;DHT22;30583;48.714;9.386;2023-05-17T09:42:09;14.30;54.90
44851;DHT22;30583;48.714;9.386;2023-05-17T09:44:50;14.00;59.50
44851;DHT22;30583;48.714;9.386;2023-05-17T09:47:30;14.40;57.50
44851;DHT22;30583;48.714;9.386;2023-05-17T09:49:57;14.40;56.50
44851;DHT22;30583;48.714;9.386;2023-05-17T09:52:25;14.60;55.80
44851;DHT22;30583;48.714;9.386;2023-05-17T09:54:57;14.80;56.70
44851;DHT22;30583;48.714;9.386;2023-05-17T09:57:25;14.40;55.70
44851;DHT22;30583;48.714;9.386;2023-05-17T09:59:54;14.70;54.80
44851;DHT22;30583;48.714;9.386;2023-05-17T10:02:24;14.50;54.90
44851;DHT22;30583;48.714;9.386;2023-05-17T10:04:51;14.40;53.40
44851;DHT22;30583;48.714;9.386;2023-05-17T10:07:19;14.30;53.90
44851;DHT22;30583;48.714;9.386;2023-05-17T10:09:48;14.40;54.20
44851;DHT22;30583;48.714;9.386;2023-05-17T10:12:21;14.60;54.50
44851;DHT22;30583;48.714;9.386;2023-05-17T10:14:47;14.70;56.00
44851;DHT22;30583;48.714;9.386;2023-05-17T10:17:14;14.80;56.80
44851;DHT22;30583;48.714;9.386;2023-05-17T10:19:40;15.00;54.50
44851;DHT22;30583;48.714;9.386;2023-05-17T10:22:06;15.20;54.30
44851;DHT22;30583;48.714;9.386;2023-05-17T10:24:34;15.00;52.30
44851;DHT22;30583;48.714;9.386;2023-05-17T10:27:01;14.70;53.20
44851;DHT22;30583;48.714;9.386;2023-05-17T10:29:28;14.80;53.40
44851;DHT22;30583;48.714;9.386;2023-05-17T10:31:57;14.90;54.20
44851;DHT22;30583;48.714;9.386;2023-05-17T10:34:25;14.70;54.30
44851;DHT22;30583;48.714;9.386;2023-05-17T10:36:52;14.80;53.30
44851;DHT22;30583;48.714;9.386;2023-05-17T10:39:20;14.70;52.60
44851;DHT22;30583;48.714;9.386;2023-05-17T10:41:47;14.40;52.50
44851;DHT22;30583;48.714;9.386;2023-05-17T10:44:15;14.70;51.30
44851;DHT22;30583;48.714;9.386;2023-05-17T10:46:53;15.50;51.90
44851;DHT22;30583;48.714;9.386;2023-05-17T10:49:23;16.00;51.60
44851;DHT22;30583;48.714;9.386;2023-05-17T10:51:50;15.80;52.50
44851;DHT22;30583;48.714;9.386;2023-05-17T10:54:16;15.80;49.70
44851;DHT22;30583;48.714;9.386;2023-05-17T10:56:48;15.80;50.80
44851;DHT22;30583;48.714;9.386;2023-05-17T10:59:24;15.80;50.00
44851;DHT22;30583;48.714;9.386;2023-05-17T11:01:53;16.40;50.60
44851;DHT22;30583;48.714;9.386;2023-05-17T11:04:24;16.30;48.70
44851;DHT22;30583;48.714;9.386;2023-05-17T11:07:18;16.50;49.20
44851;DHT22;30583;48.714;9.386;2023-05-17T11:09:41;16.70;47.60
44851;DHT22;30583;48.714;9.386;2023-05-17T11:12:09;16.40;49.10
44851;DHT22;30583;48.714;9.386;2023-05-17T11:17:15;15.90;49.50
44851;DHT22;30583;48.714;9.386;2023-05-17T11:22:48;15.60;50.10
44851;DHT22;30583;48.714;9.386;2023-05-17T11:25:15;15.60;50.60
44851;DHT22;30583;48.714;9.386;2023-05-17T11:27:49;15.60;50.20
44851;DHT22;30583;48.714;9.386;2023-05-17T11:30:16;15.30;48.60
44851;DHT22;30583;48.714;9.386;2023-05-17T11:33:02;15.60;52.10
44851;DHT22;30583;48.714;9.386;2023-05-17T11:35:32;15.40;49.10
44851;DHT22;30583;48.714;9.386;2023-05-17T11:38:21;15.40;51.30
44851;DHT22;30583;48.714;9.386;2023-05-17T11:40:54;15.40;49.50
44851;DHT22;30583;48.714;9.386;2023-05-17T11:43:24;15.50;50.00
44851;DHT22;30583;48.714;9.386;2023-05-17T11:45:56;15.40;51.40
44851;DHT22;30583;48.714;9.386;2023-05-17T11:48:23;15.20;50.40
44851;DHT22;30583;48.714;9.386;2023-05-17T11:50:51;15.10;50.90
44851;DHT22;30583;48.714;9.386;2023-05-17T11:53:18;15.00;51.40
44851;DHT22;30583;48.714;9.386;2023-05-17T11:55:48;15.20;52.30
44851;DHT22;30583;48.714;9.386;2023-05-17T11:58:19;15.40;51.50
44851;DHT22;30583;48.714;9.386;2023-05-17T12:00:51;15.30;51.50
44851;DHT22;30583;48.714;9.386;2023-05-17T12:03:21;15.50;51.00
44851;DHT22;30583;48.714;9.386;2023-05-17T12:05:48;15.30;50.40
44851;DHT22;30583;48.714;9.386;2023-05-17T12:08:15;15.70;51.80
44851;DHT22;30583;48.714;9.386;2023-05-17T12:10:50;15.70;49.40
44851;DHT22;30583;48.714;9.386;2023-05-17T12:13:16;15.80;49.60
44851;DHT22;30583;48.714;9.386;2023-05-17T12:15:53;15.80;51.80
44851;DHT22;30583;48.714;9.386;2023-05-17T12:18:20;15.60;49.80
44851;DHT22;30583;48.714;9.386;2023-05-17T12:20:58;15.90;51.10
44851;DHT22;30583;48.714;9.386;2023-05-17T12:23:32;16.20;50.30
44851;DHT22;30583;48.714;9.386;2023-05-17T12:26:06;15.60;49.50
44851;DHT22;30583;48.714;9.386;2023-05-17T12:28:32;15.20;51.00
44851;DHT22;30583;48.714;9.386;2023-05-17T12:30:59;15.50;50.90
44851;DHT22;30583;48.714;9.386;2023-05-17T12:33:36;15.90;51.00
44851;DHT22;30583;48.714;9.386;2023-05-17T12:36:04;16.30;51.70
44851;DHT22;30583;48.714;9.386;2023-05-17T12:38:34;16.70;49.90
44851;DHT22;30583;48.714;9.386;2023-05-17T12:41:01;16.70;49.10
44851;DHT22;30583;48.714;9.386;2023-05-17T12:43:28;16.40;49.60
44851;DHT22;30583;48.714;9.386;2023-05-17T12:46:05;16.50;48.50
44851;DHT22;30583;48.714;9.386;2023-05-17T12:48:35;16.80;49.50
44851;DHT22;30583;48.714;9.386;2023-05-17T12:51:13;16.90;48.50
44851;DHT22;30583;48.714;9.386;2023-05-17T12:53:56;16.90;48.60
44851;DHT22;30583;48.714;9.386;2023-05-17T12:56:23;17.10;48.80
44851;DHT22;30583;48.714;9.386;2023-05-17T12:59:14;17.00;47.50
44851;DHT22;30583;48.714;9.386;2023-05-17T13:01:53;16.60;47.50
44851;DHT22;30583;48.714;9.386;2023-05-17T13:04:34;16.90;47.50
44851;DHT22;30583;48.714;9.386;2023-05-17T13:07:03;16.90;48.20
44851;DHT22;30583;48.714;9.386;2023-05-17T13:09:31;17.30;49.60
44851;DHT22;30583;48.714;9.386;2023-05-17T13:11:57;17.80;46.80
44851;DHT22;30583;48.714;9.386;2023-05-17T13:14:36;17.90;48.10
44851;DHT22;30583;48.714;9.386;2023-05-17T13:17:07;17.50;46.90
44851;DHT22;30583;48.714;9.386;2023-05-17T13:19:33;17.50;48.40
44851;DHT22;30583;48.714;9.386;2023-05-17T13:22:02;18.10;47.80
44851;DHT22;30583;48.714;9.386;2023-05-17T13:24:30;18.20;47.30
44851;DHT22;30583;48.714;9.386;2023-05-17T13:26:57;17.90;49.40
44851;DHT22;30583;48.714;9.386;2023-05-17T13:29:23;17.30;46.60
44851;DHT22;30583;48.714;9.386;2023-05-17T13:31:49;17.40;49.10
44851;DHT22;30583;48.714;9.386;2023-05-17T13:34:15;17.70;49.30
44851;DHT22;30583;48.714;9.386;2023-05-17T13:36:41;16.90;49.30
44851;DHT22;30583;48.714;9.386;2023-05-17T13:39:06;17.50;49.10
44851;DHT22;30583;48.714;9.386;2023-05-17T13:41:33;16.90;48.70
44851;DHT22;30583;48.714;9.386;2023-05-17T13:43:58;16.90;51.20
44851;DHT22;30583;48.714;9.386;2023-05-17T13:46:24;17.20;48.20
44851;DHT22;30583;48.714;9.386;2023-05-17T13:48:49;16.60;48.90
44851;DHT22;30583;48.714;9.386;2023-05-17T13:51:15;16.60;51.30
44851;DHT22;30583;48.714;9.386;2023-05-17T13:53:41;16.40;50.40
44851;DHT22;30583;48.714;9.386;2023-05-17T13:56:08;16.90;48.50
44851;DHT22;30583;48.714;9.386;2023-05-17T13:58:33;16.40;48.70
44851;DHT22;30583;48.714;9.386;2023-05-17T14:00:59;16.80;49.40
44851;DHT22;30583;48.714;9.386;2023-05-17T14:03:25;17.30;48.60
44851;DHT22;30583;48.714;9.386;2023-05-17T14:05:50;17.10;48.00
44851;DHT22;30583;48.714;9.386;2023-05-17T14:08:17;17.50;48.80
44851;DHT22;30583;48.714;9.386;2023-05-17T14:10:43;17.40;48.40
44851;DHT22;30583;48.714;9.386;2023-05-17T14:13:08;17.50;48.20
44851;DHT22;30583;48.714;9.386;2023-05-17T14:15:36;17.20;47.50
44851;DHT22;30583;48.714;9.386;2023-05-17T14:18:07;17.00;49.40
44851;DHT22;30583;48.714;9.386;2023-05-17T14:20:33;17.10;47.60
44851;DHT22;30583;48.714;9.386;2023-05-17T14:22:59;16.80;49.20
44851;DHT22;30583;48.714;9.386;2023-05-17T14:25:25;16.80;49.60
44851;DHT22;30583;48.714;9.386;2023-05-17T14:27:51;17.80;47.70
44851;DHT22;30583;48.714;9.386;2023-05-17T14:30:18;18.80;47.30
44851;DHT22;30583;48.714;9.386;2023-05-17T14:32:43;19.00;45.70
44851;DHT22;30583;48.714;9.386;2023-05-17T14:35:09;18.50;46.50
44851;DHT22;30583;48.714;9.386;2023-05-17T14:37:35;18.60;47.00
44851;DHT22;30583;48.714;9.386;2023-05-17T14:40:00;18.30;46.40
44851;DHT22;30583;48.714;9.386;2023-05-17T14:42:26;17.80;45.20
44851;DHT22;30583;48.714;9.386;2023-05-17T14:44:52;17.00;47.70
44851;DHT22;30583;48.714;9.386;2023-05-17T14:47:18;17.20;47.20
44851;DHT22;30583;48.714;9.386;2023-05-17T14:49:46;16.60;48.80
44851;DHT22;30583;48.714;9.386;2023-05-17T14:52:11;16.40;49.70
44851;DHT22;30583;48.714;9.386;2023-05-17T14:54:38;16.30;48.40
44851;DHT22;30583;48.714;9.386;2023-05-17T14:57:04;16.20;47.80
44851;DHT22;30583;48.714;9.386;2023-05-17T14:59:30;16.80;49.40
44851;DHT22;30583;48.714;9.386;2023-05-17T15:01:56;16.50;46.60
44851;DHT22;30583;48.714;9.386;2023-05-17T15:04:22;16.70;47.00
44851;DHT22;30583;48.714;9.386;2023-05-17T15:06:48;16.40;48.20
44851;DHT22;30583;48.714;9.386;2023-05-17T15:09:15;16.80;48.80
44851;DHT22;30583;48.714;9.386;2023-05-17T15:11:42;16.80;49.40
44851;DHT22;30583;48.714;9.386;2023-05-17T15:14:09;17.00;49.60
44851;DHT22;30583;48.714;9.386;2023-05-17T15:16:35;16.40;50.70
44851;DHT22;30583;48.714;9.386;2023-05-17T15:19:01;17.40;50.50
44851;DHT22;30583;48.714;9.386;2023-05-17T15:21:27;17.10;48.80
44851;DHT22;30583;48.714;9.386;2023-05-17T15:23:53;16.70;47.50
44851;DHT22;30583;48.714;9.386;2023-05-17T15:26:18;17.10;47.10
44851;DHT22;30583;48.714;9.386;2023-05-17T15:28:44;17.40;50.30
44851;DHT22;30583;48.714;9.386;2023-05-17T15:31:11;17.20;47.10
44851;DHT22;30583;48.714;9.386;2023-05-17T15:33:37;17.20;50.70
44851;DHT22;30583;48.714;9.386;2023-05-17T15:36:10;17.10;49.80
44851;DHT22;30583;48.714;9.386;2023-05-17T15:38:36;16.70;49.10
44851;DHT22;30583;48.714;9.386;2023-05-17T15:41:03;16.60;51.00
44851;DHT22;30583;48.714;9.386;2023-05-17T15:43:30;17.20;51.00
44851;DHT22;30583;48.714;9.386;2023-05-17T15:45:56;16.90;52.40
44851;DHT22;30583;48.714;9.386;2023-05-17T15:48:22;17.70;52.50
44851;DHT22;30583;48.714;9.386;2023-05-17T15:50:50;17.20;51.80
44851;DHT22;30583;48.714;9.386;2023-05-17T15:53:17;17.70;49.30
44851;DHT22;30583;48.714;9.386;2023-05-17T15:55:43;17.90;45.90
44851;DHT22;30583;48.714;9.386;2023-05-17T15:58:08;18.10;45.90